Time;durP1;ratioP1;P1;durP2;ratioP2;P2;SDS_P1;SDS_P2;PMS_P1;PMS_P2;Temp;Humidity;BMP_temperature;BMP_pressure;BME280_temperature;BME280_humidity;BME280_pressure;Samples;Min_cycle;Max_cycle;Signal;HPM_P1;HPM_P2
2022/04/04 00:01:10;;;;;;;3.70;1.27;;;;;;;;;;5052386;28;20053;-38
2022/04/04 00:03:36;;;;;;;2.83;1.40;;;;;;;;;;5052847;28;20049;-38
2022/04/04 00:06:02;;;;;;;3.85;1.40;;;;;;;;;;5052757;28;20442;-39
2022/04/04 00:08:30;;;;;;;2.45;1.40;;;;;;;;;;5052940;28;20583;-39
2022/04/04 00:10:56;;;;;;;2.90;1.45;;;;;;;;;;5052771;28;20056;-38
2022/04/04 00:13:23;;;;;;;3.05;1.30;;;;;;;;;;5052672;28;20056;-38
2022/04/04 00:15:49;;;;;;;3.42;1.42;;;;;;;;;;5052567;28;20057;-39
2022/04/04 00:18:15;;;;;;;2.85;1.40;;;;;;;;;;5052524;28;20049;-39
2022/04/04 00:20:42;;;;;;;2.70;1.50;;;;;;;;;;5052893;28;20466;-39
2022/04/04 00:23:12;;;;;;;2.53;1.20;;;;;;;;;;5052968;28;20236;-38
2022/04/04 00:25:40;;;;;;;2.47;1.35;;;;;;;;;;5052920;28;20390;-38
2022/04/04 00:28:06;;;;;;;3.20;1.40;;;;;;;;;;5052945;28;20057;-38
2022/04/04 00:30:32;;;;;;;3.60;1.50;;;;;;;;;;5056368;28;20056;-50
2022/04/04 00:32:59;;;;;;;3.17;1.40;;;;;;;;;;5059271;28;20118;-39
2022/04/04 00:35:25;;;;;;;2.70;1.40;;;;;;;;;;5058534;28;20049;-44
2022/04/04 00:37:52;;;;;;;2.50;1.40;;;;;;;;;;5057420;28;20053;-39
2022/04/04 00:40:19;;;;;;;3.33;1.50;;;;;;;;;;5056128;28;20049;-39
2022/04/04 00:42:46;;;;;;;3.13;1.27;;;;;;;;;;5056142;28;20052;-38
2022/04/04 00:45:13;;;;;;;3.03;1.40;;;;;;;;;;5055444;28;20083;-38
2022/04/04 00:47:39;;;;;;;2.80;1.20;;;;;;;;;;5055821;28;20118;-38
2022/04/04 00:50:06;;;;;;;3.63;1.48;;;;;;;;;;5056137;28;20052;-38
2022/04/04 00:52:32;;;;;;;3.45;1.35;;;;;;;;;;5055561;28;20457;-39
2022/04/04 00:54:59;;;;;;;3.40;1.30;;;;;;;;;;5055566;28;20114;-39
2022/04/04 00:57:25;;;;;;;2.38;1.17;;;;;;;;;;5055508;28;20114;-39
2022/04/04 00:59:53;;;;;;;2.85;1.33;;;;;;;;;;5055545;28;20060;-37
2022/04/04 01:02:19;;;;;;;2.90;1.27;;;;;;;;;;5055798;28;20052;-38
2022/04/04 01:04:46;;;;;;;2.40;1.40;;;;;;;;;;5055773;28;20053;-38
2022/04/04 01:07:12;;;;;;;1.95;1.20;;;;;;;;;;5055344;28;20049;-38
2022/04/04 01:09:38;;;;;;;3.15;1.40;;;;;;;;;;5055822;28;20053;-38
2022/04/04 01:12:06;;;;;;;2.22;1.23;;;;;;;;;;5055251;28;20470;-39
2022/04/04 01:14:33;;;;;;;3.45;1.38;;;;;;;;;;5055110;28;20517;-39
2022/04/04 01:17:01;;;;;;;2.60;1.35;;;;;;;;;;5054861;28;20363;-38
2022/04/04 01:19:27;;;;;;;4.25;1.33;;;;;;;;;;5055395;28;20551;-39
2022/04/04 01:21:54;;;;;;;2.85;1.15;;;;;;;;;;5055103;28;20524;-39
2022/04/04 01:24:22;;;;;;;2.33;1.10;;;;;;;;;;5055221;28;20136;-38
2022/04/04 01:26:48;;;;;;;;;;;;;;;;;;5055033;28;20048;-40
2022/04/04 01:29:14;;;;;;;4.38;1.60;;;;;;;;;;5055187;28;20253;-38
2022/04/04 01:31:41;;;;;;;2.00;1.00;;;;;;;;;;5055230;28;20048;-39
2022/04/04 01:34:07;;;;;;;2.45;1.38;;;;;;;;;;5055333;28;20057;-39
2022/04/04 01:36:34;;;;;;;2.15;1.13;;;;;;;;;;5054767;28;20048;-39
2022/04/04 01:39:00;;;;;;;2.30;1.25;;;;;;;;;;5054978;28;20052;-38
2022/04/04 01:41:28;;;;;;;3.00;1.20;;;;;;;;;;5054546;28;20049;-38
2022/04/04 01:43:54;;;;;;;3.15;1.50;;;;;;;;;;5054904;28;20063;-38
2022/04/04 01:46:27;;;;;;;2.70;1.33;;;;;;;;;;5054699;28;20466;-39
2022/04/04 01:48:53;;;;;;;2.45;1.17;;;;;;;;;;5054756;28;20083;-38
2022/04/04 01:51:20;;;;;;;2.78;1.27;;;;;;;;;;5054580;28;20535;-38
2022/04/04 01:53:46;;;;;;;2.75;1.20;;;;;;;;;;5054552;28;20462;-37
2022/04/04 01:56:13;;;;;;;3.10;1.48;;;;;;;;;;5054532;28;20049;-38
2022/04/04 01:58:41;;;;;;;3.72;1.30;;;;;;;;;;5055650;28;20052;-38
2022/04/04 02:01:09;;;;;;;2.55;1.30;;;;;;;;;;5054415;28;20421;-39
2022/04/04 02:03:36;;;;;;;2.78;1.20;;;;;;;;;;5054457;28;20045;-38
2022/04/04 02:06:03;;;;;;;3.10;1.40;;;;;;;;;;5054290;28;20522;-38
2022/04/04 02:08:29;;;;;;;1.95;1.13;;;;;;;;;;5054333;28;20143;-38
2022/04/04 02:10:56;;;;;;;2.95;1.20;;;;;;;;;;5054212;28;20049;-39
2022/04/04 02:13:25;;;;;;;2.60;1.23;;;;;;;;;;5054172;28;20103;-38
2022/04/04 02:15:53;;;;;;;2.45;1.23;;;;;;;;;;5054105;28;20053;-38
2022/04/04 02:18:19;;;;;;;3.05;1.30;;;;;;;;;;5054407;28;20052;-39
2022/04/04 02:20:45;;;;;;;2.67;1.20;;;;;;;;;;5054838;28;20052;-47
2022/04/04 02:23:12;;;;;;;2.35;1.20;;;;;;;;;;5055746;28;20057;-41
2022/04/04 02:25:38;;;;;;;2.20;1.17;;;;;;;;;;5055602;28;20410;-45
2022/04/04 02:28:05;;;;;;;2.33;1.20;;;;;;;;;;5054902;28;20143;-38
2022/04/04 02:30:31;;;;;;;2.90;1.20;;;;;;;;;;5054159;28;20053;-39
2022/04/04 02:32:59;;;;;;;2.33;1.17;;;;;;;;;;5053878;28;20111;-38
2022/04/04 02:35:26;;;;;;;2.88;1.23;;;;;;;;;;5053937;28;20106;-38
2022/04/04 02:37:52;;;;;;;3.33;1.40;;;;;;;;;;5053991;28;20057;-38
2022/04/04 02:40:19;;;;;;;2.10;1.10;;;;;;;;;;5053601;28;20102;-39
2022/04/04 02:42:46;;;;;;;3.00;1.40;;;;;;;;;;5053614;28;20053;-39
2022/04/04 02:45:13;;;;;;;3.10;1.20;;;;;;;;;;5053712;28;20110;-39
2022/04/04 02:47:39;;;;;;;1.98;1.13;;;;;;;;;;5053944;28;20139;-39
2022/04/04 02:50:08;;;;;;;1.83;1.05;;;;;;;;;;5053950;28;20049;-39
2022/04/04 02:52:34;;;;;;;1.95;1.13;;;;;;;;;;5052888;28;20130;-38
2022/04/04 02:56:28;;;;;;;2.25;1.10;;;;;;;;;;5054069;28;20057;-39
2022/04/04 02:57:47;;;;;;;3.35;1.33;;;;;;;;;;5053442;28;20478;-38
2022/04/04 03:00:14;;;;;;;1.23;1.05;;;;;;;;;;5053856;28;20063;-37
2022/04/04 03:02:40;;;;;;;2.67;1.20;;;;;;;;;;5053303;28;20063;-39
2022/04/04 03:05:08;;;;;;;2.47;1.30;;;;;;;;;;5053561;28;20095;-39
2022/04/04 03:07:35;;;;;;;2.35;1.20;;;;;;;;;;5053516;28;20045;-39
2022/04/04 03:10:01;;;;;;;2.17;1.10;;;;;;;;;;5053395;28;20429;-39
2022/04/04 03:12:27;;;;;;;2.15;1.20;;;;;;;;;;5053364;28;20049;-39
2022/04/04 03:14:53;;;;;;;2.22;1.10;;;;;;;;;;5053218;28;20052;-39
2022/04/04 03:17:20;;;;;;;2.00;1.13;;;;;;;;;;5053062;28;20052;-43
2022/04/04 03:19:47;;;;;;;2.00;1.10;;;;;;;;;;5053692;28;20114;-39
2022/04/04 03:22:15;;;;;;;2.70;1.30;;;;;;;;;;5053084;28;20063;-38
2022/04/04 03:24:41;;;;;;;2.10;1.00;;;;;;;;;;5053287;28;20421;-39
2022/04/04 03:27:07;;;;;;;2.47;1.23;;;;;;;;;;5053014;28;20060;-40
2022/04/04 03:29:34;;;;;;;2.10;1.20;;;;;;;;;;5053394;28;20045;-38
2022/04/04 03:32:00;;;;;;;2.10;1.15;;;;;;;;;;5053520;28;20114;-38
2022/04/04 03:34:27;;;;;;;3.00;1.20;;;;;;;;;;5052590;28;20049;-43
2022/04/04 03:36:53;;;;;;;2.20;1.30;;;;;;;;;;5053274;28;20060;-38
2022/04/04 03:39:20;;;;;;;2.60;1.30;;;;;;;;;;5052957;28;20458;-38
2022/04/04 03:41:47;;;;;;;1.17;0.93;;;;;;;;;;5053017;28;20433;-41
2022/04/04 03:44:13;;;;;;;1.50;1.00;;;;;;;;;;5052702;28;20053;-39
2022/04/04 03:46:39;;;;;;;2.05;1.10;;;;;;;;;;5053293;28;20049;-39
2022/04/04 03:49:06;;;;;;;1.95;1.20;;;;;;;;;;5053047;28;20057;-38
2022/04/04 03:51:32;;;;;;;2.20;1.20;;;;;;;;;;5053189;28;20126;-39
2022/04/04 03:53:59;;;;;;;2.10;1.10;;;;;;;;;;5052747;28;20367;-38
2022/04/04 03:56:26;;;;;;;2.28;1.10;;;;;;;;;;5052588;28;20485;-38
2022/04/04 03:58:54;;;;;;;1.27;0.93;;;;;;;;;;5052501;28;20527;-39
2022/04/04 04:01:22;;;;;;;1.55;1.00;;;;;;;;;;5052722;28;20546;-39
2022/04/04 04:03:48;;;;;;;2.10;1.10;;;;;;;;;;5052788;28;20049;-39
2022/04/04 04:06:16;;;;;;;1.83;1.00;;;;;;;;;;5056819;28;20041;-42
2022/04/04 04:08:43;;;;;;;1.58;1.02;;;;;;;;;;5056758;28;20182;-38
2022/04/04 04:11:10;;;;;;;2.67;1.13;;;;;;;;;;5056400;28;20482;-38
2022/04/04 04:13:37;;;;;;;2.45;1.20;;;;;;;;;;5056625;28;20057;-39
2022/04/04 04:16:04;;;;;;;2.42;1.25;;;;;;;;;;5056483;28;20045;-39
2022/04/04 04:18:30;;;;;;;1.52;1.00;;;;;;;;;;5056312;28;20462;-39
2022/04/04 04:20:57;;;;;;;2.15;0.98;;;;;;;;;;5057251;28;20063;-39
2022/04/04 04:23:23;;;;;;;2.50;1.20;;;;;;;;;;5057794;28;20118;-52
2022/04/04 04:25:50;;;;;;;2.20;1.10;;;;;;;;;;5057241;28;20053;-43
2022/04/04 04:28:17;;;;;;;1.58;1.00;;;;;;;;;;5056528;28;20144;-39
2022/04/04 04:30:45;;;;;;;1.80;0.90;;;;;;;;;;5056394;28;20045;-38
2022/04/04 04:33:11;;;;;;;2.75;1.13;;;;;;;;;;5056499;28;20103;-39
2022/04/04 04:35:38;;;;;;;1.60;1.00;;;;;;;;;;5056216;28;20167;-39
2022/04/04 04:38:04;;;;;;;1.80;1.00;;;;;;;;;;5055854;28;20466;-39
2022/04/04 04:40:31;;;;;;;2.30;1.02;;;;;;;;;;5055996;28;20115;-39
2022/04/04 04:42:58;;;;;;;1.75;0.90;;;;;;;;;;5056209;28;20057;-38
2022/04/04 04:45:24;;;;;;;1.90;1.05;;;;;;;;;;5055433;28;20053;-39
2022/04/04 04:47:51;;;;;;;1.70;0.90;;;;;;;;;;5055471;28;20466;-39
2022/04/04 04:50:19;;;;;;;1.48;0.82;;;;;;;;;;5055709;28;20064;-39
2022/04/04 04:52:46;;;;;;;2.40;1.05;;;;;;;;;;5055861;28;20053;-38
2022/04/04 04:55:13;;;;;;;1.70;1.15;;;;;;;;;;5055997;28;20172;-39
2022/04/04 04:57:39;;;;;;;1.98;0.95;;;;;;;;;;5055728;28;20128;-39
2022/04/04 05:00:08;;;;;;;1.80;1.10;;;;;;;;;;5055861;28;20049;-39
2022/04/04 05:02:35;;;;;;;1.65;1.02;;;;;;;;;;5055480;28;20057;-40
2022/04/04 05:05:04;;;;;;;2.22;1.00;;;;;;;;;;5055313;28;20433;-39
2022/04/04 05:07:31;;;;;;;1.75;1.02;;;;;;;;;;5054757;28;20462;-38
2022/04/04 05:09:57;;;;;;;2.13;1.30;;;;;;;;;;5055382;28;20048;-38
2022/04/04 05:12:23;;;;;;;1.80;1.10;;;;;;;;;;5055746;28;20068;-41
2022/04/04 05:14:50;;;;;;;2.15;1.00;;;;;;;;;;5054637;28;20049;-39
2022/04/04 05:17:16;;;;;;;2.08;1.00;;;;;;;;;;5055400;28;20099;-39
2022/04/04 05:19:43;;;;;;;1.95;1.02;;;;;;;;;;5055283;28;20053;-39
2022/04/04 05:22:10;;;;;;;1.50;1.00;;;;;;;;;;5055174;28;20473;-38
2022/04/04 05:24:36;;;;;;;1.42;0.90;;;;;;;;;;5055226;28;20067;-38
2022/04/04 05:27:03;;;;;;;1.67;1.17;;;;;;;;;;5054970;28;20136;-38
2022/04/04 05:29:29;;;;;;;2.22;1.00;;;;;;;;;;5055508;28;20063;-39
2022/04/04 05:31:56;;;;;;;1.85;1.10;;;;;;;;;;5055064;28;20110;-38
2022/04/04 05:34:22;;;;;;;1.23;0.90;;;;;;;;;;5054964;28;20421;-38
2022/04/04 05:36:49;;;;;;;1.55;1.10;;;;;;;;;;5054408;28;20056;-38
2022/04/04 05:39:16;;;;;;;2.10;1.00;;;;;;;;;;5055279;28;20052;-38
2022/04/04 05:41:42;;;;;;;1.48;1.00;;;;;;;;;;5054870;28;20107;-39
2022/04/04 05:44:09;;;;;;;1.52;1.00;;;;;;;;;;5055239;28;20095;-38
2022/04/04 05:46:35;;;;;;;1.00;0.90;;;;;;;;;;5054745;28;20056;-39
2022/04/04 05:49:02;;;;;;;1.42;1.02;;;;;;;;;;5054404;28;20069;-39
2022/04/04 05:51:28;;;;;;;1.48;1.10;;;;;;;;;;5054640;28;20052;-39
2022/04/04 05:53:54;;;;;;;1.77;1.00;;;;;;;;;;5055048;28;20075;-39
2022/04/04 05:56:22;;;;;;;1.27;1.00;;;;;;;;;;5054684;28;20049;-37
2022/04/04 05:58:48;;;;;;;1.98;1.00;;;;;;;;;;5054521;28;20360;-39
2022/04/04 06:01:15;;;;;;;2.17;1.00;;;;;;;;;;5054038;28;20060;-38
2022/04/04 06:03:41;;;;;;;1.88;0.90;;;;;;;;;;5054760;28;20053;-38
2022/04/04 06:06:08;;;;;;;1.98;0.93;;;;;;;;;;5054345;28;20114;-38
2022/04/04 06:08:34;;;;;;;1.88;1.13;;;;;;;;;;5054714;28;20127;-39
2022/04/04 06:11:00;;;;;;;1.80;1.00;;;;;;;;;;5053959;28;20409;-39
2022/04/04 06:13:28;;;;;;;1.52;0.90;;;;;;;;;;5054065;28;20440;-41
2022/04/04 06:15:54;;;;;;;2.38;1.05;;;;;;;;;;5054375;28;20048;-38
2022/04/04 06:18:21;;;;;;;2.42;1.10;;;;;;;;;;5054059;28;20052;-38
2022/04/04 06:20:47;;;;;;;1.55;0.90;;;;;;;;;;5054025;28;20045;-38
2022/04/04 06:23:14;;;;;;;1.63;0.98;;;;;;;;;;5054469;28;20118;-40
2022/04/04 06:25:41;;;;;;;1.77;1.00;;;;;;;;;;5054108;28;20059;-37
2022/04/04 06:28:07;;;;;;;1.30;1.08;;;;;;;;;;5053452;28;20074;-39
2022/04/04 06:30:35;;;;;;;2.05;1.00;;;;;;;;;;5053660;28;20053;-39
2022/04/04 06:33:04;;;;;;;6.05;1.50;;;;;;;;;;5052501;28;20462;-39
2022/04/04 06:35:30;;;;;;;3.47;1.10;;;;;;;;;;5053728;28;20057;-39
2022/04/04 06:37:56;;;;;;;4.70;1.05;;;;;;;;;;5053708;28;20057;-38
2022/04/04 06:40:22;;;;;;;7.20;1.65;;;;;;;;;;5052237;28;20057;-38
2022/04/04 06:42:49;;;;;;;7.03;1.08;;;;;;;;;;5051607;28;20045;-38
2022/04/04 06:45:17;;;;;;;6.90;1.20;;;;;;;;;;5053344;28;20385;-38
2022/04/04 06:47:45;;;;;;;8.88;1.50;;;;;;;;;;5052965;28;20053;-38
2022/04/04 06:50:13;;;;;;;;;;;;;;;;;;5053839;28;20080;-39
2022/04/04 06:52:39;;;;;;;6.28;1.25;;;;;;;;;;5051753;28;20342;-40
2022/04/04 06:55:06;;;;;;;7.40;1.33;;;;;;;;;;5053253;28;20045;-38
2022/04/04 06:57:32;;;;;;;5.35;1.30;;;;;;;;;;5052671;28;20300;-39
2022/04/04 06:59:59;;;;;;;8.55;1.55;;;;;;;;;;5052227;28;20110;-39
2022/04/04 07:02:25;;;;;;;6.97;1.30;;;;;;;;;;5051869;28;20059;-39
2022/04/04 07:04:53;;;;;;;7.30;1.20;;;;;;;;;;5051508;28;20111;-39
2022/04/04 07:07:21;;;;;;;8.32;1.60;;;;;;;;;;5052849;28;20128;-40
2022/04/04 07:09:48;;;;;;;8.50;1.58;;;;;;;;;;5051701;28;20131;-37
2022/04/04 07:12:14;;;;;;;9.65;1.33;;;;;;;;;;5052601;28;20049;-39
2022/04/04 07:14:40;;;;;;;6.90;1.38;;;;;;;;;;5052902;28;20048;-39
2022/04/04 07:17:06;;;;;;;11.02;1.63;;;;;;;;;;5053765;28;20102;-43
2022/04/04 07:19:33;;;;;;;7.78;1.45;;;;;;;;;;5054665;28;20182;-51
2022/04/04 07:22:01;;;;;;;5.28;1.20;;;;;;;;;;5053549;28;20080;-41
2022/04/04 07:24:28;;;;;;;4.82;1.27;;;;;;;;;;5055567;28;20057;-41
2022/04/04 07:26:54;;;;;;;6.85;1.50;;;;;;;;;;5053726;28;20163;-40
2022/04/04 07:29:21;;;;;;;5.47;1.20;;;;;;;;;;5050766;28;20084;-38
2022/04/04 07:31:47;;;;;;;7.90;1.70;;;;;;;;;;5052024;28;20405;-37
2022/04/04 07:34:14;;;;;;;6.47;1.40;;;;;;;;;;5051869;28;20068;-39
2022/04/04 07:36:41;;;;;;;5.55;1.42;;;;;;;;;;5051938;28;20048;-39
2022/04/04 07:39:09;;;;;;;6.07;1.33;;;;;;;;;;5055522;28;20081;-39
2022/04/04 07:41:35;;;;;;;7.28;1.27;;;;;;;;;;5054479;28;20164;-38
2022/04/04 07:44:02;;;;;;;6.82;1.15;;;;;;;;;;5055261;28;20053;-38
2022/04/04 07:46:28;;;;;;;6.57;1.25;;;;;;;;;;5055314;28;20053;-39
2022/04/04 07:48:55;;;;;;;7.43;1.48;;;;;;;;;;5056744;28;20065;-38
2022/04/04 07:51:21;;;;;;;6.28;1.30;;;;;;;;;;5055842;28;20545;-39
2022/04/04 07:53:47;;;;;;;5.50;1.33;;;;;;;;;;5056070;28;20060;-38
2022/04/04 07:56:15;;;;;;;7.60;1.48;;;;;;;;;;5055256;28;20053;-39
2022/04/04 07:58:42;;;;;;;5.43;1.13;;;;;;;;;;5055630;28;20038;-41
2022/04/04 08:01:08;;;;;;;4.43;1.10;;;;;;;;;;5054302;28;20049;-39
2022/04/04 08:03:35;;;;;;;6.30;1.25;;;;;;;;;;5056093;28;20102;-39
2022/04/04 08:06:01;;;;;;;12.57;1.80;;;;;;;;;;5056626;28;20135;-39
2022/04/04 08:08:29;;;;;;;9.43;2.75;;;;;;;;;;5056848;28;20511;-38
2022/04/04 08:10:57;;;;;;;10.25;2.38;;;;;;;;;;5055649;28;20520;-38
2022/04/04 08:13:25;;;;;;;10.85;1.77;;;;;;;;;;5054714;28;20110;-38
2022/04/04 08:15:52;;;;;;;8.57;1.70;;;;;;;;;;5053094;28;20118;-39
2022/04/04 08:18:19;;;;;;;8.52;1.58;;;;;;;;;;5056357;28;20049;-39
2022/04/04 08:20:45;;;;;;;9.52;1.90;;;;;;;;;;5053517;28;20041;-38
2022/04/04 08:23:11;;;;;;;9.35;1.52;;;;;;;;;;5056270;28;20063;-38
2022/04/04 08:25:37;;;;;;;6.63;1.48;;;;;;;;;;5054531;28;20056;-39
2022/04/04 08:28:05;;;;;;;8.13;1.55;;;;;;;;;;5054953;28;20053;-39
2022/04/04 08:30:32;;;;;;;9.13;1.58;;;;;;;;;;5056249;28;20085;-38
2022/04/04 08:32:59;;;;;;;10.55;1.55;;;;;;;;;;5055617;28;20466;-39
2022/04/04 08:35:25;;;;;;;12.50;1.80;;;;;;;;;;5055249;28;20422;-39
2022/04/04 08:37:52;;;;;;;10.90;1.60;;;;;;;;;;5054816;28;20178;-38
2022/04/04 08:40:19;;;;;;;8.20;1.40;;;;;;;;;;5056420;28;20053;-39
2022/04/04 08:42:45;;;;;;;4.93;1.17;;;;;;;;;;5053958;28;20060;-39
2022/04/04 08:45:12;;;;;;;5.78;1.25;;;;;;;;;;5053921;28;20056;-39
2022/04/04 08:47:40;;;;;;;6.82;1.60;;;;;;;;;;5055802;28;20888;-39
2022/04/04 08:50:07;;;;;;;7.93;1.40;;;;;;;;;;5055059;28;20045;-39
2022/04/04 08:52:34;;;;;;;6.78;1.40;;;;;;;;;;5055016;28;20061;-39
2022/04/04 08:55:00;;;;;;;6.28;1.45;;;;;;;;;;5054877;28;20052;-38
2022/04/04 08:57:26;;;;;;;4.75;1.20;;;;;;;;;;5055144;28;20056;-39
2022/04/04 08:59:52;;;;;;;7.25;1.20;;;;;;;;;;5055582;28;20110;-39
2022/04/04 09:02:19;;;;;;;7.50;1.40;;;;;;;;;;5053998;28;20048;-39
2022/04/04 09:04:50;;;;;;;4.18;1.25;;;;;;;;;;5054400;28;20049;-39
2022/04/04 09:07:18;;;;;;;6.65;1.25;;;;;;;;;;5055370;28;20053;-39
2022/04/04 09:09:45;;;;;;;4.60;1.02;;;;;;;;;;5054848;28;20373;-38
2022/04/04 09:12:13;;;;;;;5.80;1.40;;;;;;;;;;5055209;28;20064;-39
2022/04/04 09:14:42;;;;;;;4.70;1.25;;;;;;;;;;5054421;28;20084;-38
2022/04/04 09:17:09;;;;;;;5.03;1.17;;;;;;;;;;5053894;28;20083;-38
2022/04/04 09:19:35;;;;;;;5.10;1.20;;;;;;;;;;5055116;28;20052;-38
2022/04/04 09:22:07;;;;;;;5.53;1.40;;;;;;;;;;5055185;28;20044;-38
2022/04/04 09:24:44;;;;;;;6.95;1.50;;;;;;;;;;5053858;28;20056;-39
2022/04/04 09:27:11;;;;;;;4.90;1.35;;;;;;;;;;5051625;28;20045;-38
2022/04/04 09:29:40;;;;;;;8.10;1.42;;;;;;;;;;5052135;28;20049;-37
2022/04/04 09:32:09;;;;;;;6.28;1.17;;;;;;;;;;5053806;28;20428;-38
2022/04/04 09:34:49;;;;;;;6.70;1.40;;;;;;;;;;5053185;28;20094;-39
2022/04/04 09:37:17;;;;;;;6.90;1.45;;;;;;;;;;5055012;28;20061;-38
2022/04/04 09:39:44;;;;;;;3.25;1.30;;;;;;;;;;5054316;28;20052;-39
2022/04/04 09:42:14;;;;;;;4.72;1.20;;;;;;;;;;5054733;28;20978;-38
2022/04/04 09:44:40;;;;;;;8.15;1.83;;;;;;;;;;5052428;28;20053;-38
2022/04/04 09:47:07;;;;;;;3.70;1.05;;;;;;;;;;5054876;28;20053;-38
2022/04/04 09:49:38;;;;;;;12.50;1.52;;;;;;;;;;5053600;28;20052;-38
2022/04/04 09:52:05;;;;;;;8.93;1.30;;;;;;;;;;5054643;28;20390;-39
2022/04/04 09:54:32;;;;;;;7.90;1.55;;;;;;;;;;5053925;28;20429;-39
2022/04/04 09:57:10;;;;;;;3.88;1.33;;;;;;;;;;5053892;28;20061;-39
2022/04/04 09:59:37;;;;;;;4.38;1.35;;;;;;;;;;5053272;28;20080;-38
2022/04/04 10:02:04;;;;;;;10.07;1.77;;;;;;;;;;5053941;28;20053;-39
2022/04/04 10:04:31;;;;;;;9.00;1.42;;;;;;;;;;5053934;28;20060;-38
2022/04/04 10:06:57;;;;;;;9.63;1.40;;;;;;;;;;5054023;28;20052;-39
2022/04/04 10:09:24;;;;;;;6.88;1.30;;;;;;;;;;5054073;28;20056;-38
2022/04/04 10:11:52;;;;;;;10.60;1.60;;;;;;;;;;5053447;28;20064;-42
2022/04/04 10:14:19;;;;;;;8.50;1.52;;;;;;;;;;5053533;28;20073;-38
2022/04/04 10:16:46;;;;;;;7.97;1.67;;;;;;;;;;5052205;28;20052;-39
2022/04/04 10:19:14;;;;;;;9.60;1.35;;;;;;;;;;5052769;28;20041;-38
2022/04/04 10:21:40;;;;;;;8.05;1.30;;;;;;;;;;5053291;28;20056;-38
2022/04/04 10:24:09;;;;;;;6.68;1.42;;;;;;;;;;5053405;28;20053;-39
2022/04/04 10:26:36;;;;;;;6.68;1.55;;;;;;;;;;5052970;28;20055;-38
2022/04/04 10:29:12;;;;;;;10.43;1.25;;;;;;;;;;5052829;28;20478;-39
2022/04/04 10:31:42;;;;;;;8.73;1.52;;;;;;;;;;5053654;28;20061;-39
2022/04/04 10:34:11;;;;;;;6.38;1.42;;;;;;;;;;5054008;28;20060;-39
2022/04/04 10:36:37;;;;;;;5.57;1.30;;;;;;;;;;5052413;28;20140;-39
2022/04/04 10:39:03;;;;;;;6.60;1.50;;;;;;;;;;5053356;28;20041;-39
2022/04/04 10:41:30;;;;;;;7.35;1.30;;;;;;;;;;5052927;28;20057;-38
2022/04/04 10:43:57;;;;;;;8.18;1.38;;;;;;;;;;5052516;28;20044;-38
2022/04/04 10:46:25;;;;;;;8.45;1.50;;;;;;;;;;5052755;28;20041;-38
2022/04/04 10:48:53;;;;;;;10.90;1.50;;;;;;;;;;5052866;28;20048;-39
2022/04/04 10:51:19;;;;;;;;;;;;;;;;;;5053312;28;20049;-39
2022/04/04 10:53:49;;;;;;;11.00;1.60;;;;;;;;;;5053618;28;19921;-41
2022/04/04 10:56:19;;;;;;;7.93;1.50;;;;;;;;;;5052507;28;20064;-40
2022/04/04 10:58:46;;;;;;;11.82;1.45;;;;;;;;;;5053701;28;20057;-39
2022/04/04 11:01:16;;;;;;;6.55;1.40;;;;;;;;;;5051575;28;20052;-43
2022/04/04 11:03:57;;;;;;;6.60;1.40;;;;;;;;;;5053319;28;20436;-39
2022/04/04 11:09:46;;;;;;;8.57;1.42;;;;;;;;;;5011273;28;20580;-38
2022/04/04 11:12:14;;;;;;;6.20;1.33;;;;;;;;;;5011497;28;20407;-39
2022/04/04 11:14:55;;;;;;;6.60;1.50;;;;;;;;;;5030974;28;20072;-41
2022/04/04 11:17:30;;;;;;;6.13;1.20;;;;;;;;;;5053252;28;20056;-39
2022/04/04 11:20:02;;;;;;;9.05;1.35;;;;;;;;;;5052446;28;20080;-39
2022/04/04 11:22:29;;;;;;;7.22;1.30;;;;;;;;;;5051972;28;20049;-42
2022/04/04 11:24:58;;;;;;;6.47;1.20;;;;;;;;;;5053249;28;20144;-38
2022/04/04 11:27:25;;;;;;;10.95;1.58;;;;;;;;;;5052725;28;20067;-39
2022/04/04 11:29:51;;;;;;;6.63;1.40;;;;;;;;;;5053248;28;20435;-39
2022/04/04 11:32:25;;;;;;;8.57;1.60;;;;;;;;;;5054432;28;20064;-43
2022/04/04 11:34:56;;;;;;;5.88;1.50;;;;;;;;;;5055801;28;20060;-51
2022/04/04 11:37:27;;;;;;;7.50;1.20;;;;;;;;;;5054945;28;20167;-41
2022/04/04 11:40:03;;;;;;;10.25;1.30;;;;;;;;;;5054898;28;20908;-44
2022/04/04 11:42:29;;;;;;;8.52;1.40;;;;;;;;;;5054911;28;20159;-45
2022/04/04 11:44:55;;;;;;;8.30;1.73;;;;;;;;;;5053884;28;20126;-41
2022/04/04 11:47:22;;;;;;;8.05;1.50;;;;;;;;;;5052289;28;20052;-38
2022/04/04 11:49:50;;;;;;;9.10;1.45;;;;;;;;;;5053186;28;20056;-43
2022/04/04 11:52:18;;;;;;;9.20;1.45;;;;;;;;;;5053084;28;20060;-40
2022/04/04 11:54:49;;;;;;;7.82;1.40;;;;;;;;;;5052093;28;20462;-39
2022/04/04 11:57:15;;;;;;;7.05;1.08;;;;;;;;;;5052621;28;20385;-39
2022/04/04 11:59:43;;;;;;;10.77;1.65;;;;;;;;;;5052159;28;20426;-39
2022/04/04 12:02:09;;;;;;;10.73;1.52;;;;;;;;;;5052570;28;20163;-41
2022/04/04 12:04:36;;;;;;;9.27;1.83;;;;;;;;;;5053420;28;20053;-41
2022/04/04 12:07:03;;;;;;;11.15;1.80;;;;;;;;;;5053366;28;20087;-48
2022/04/04 12:09:29;;;;;;;9.00;1.50;;;;;;;;;;5053277;28;20450;-38
2022/04/04 12:12:02;;;;;;;8.93;1.52;;;;;;;;;;5052911;28;20052;-39
2022/04/04 12:14:31;;;;;;;6.32;1.40;;;;;;;;;;5052818;28;20048;-39
2022/04/04 12:16:57;;;;;;;9.23;1.52;;;;;;;;;;5052408;28;20144;-39
2022/04/04 12:19:24;;;;;;;6.55;1.35;;;;;;;;;;5052562;28;20044;-39
2022/04/04 12:21:51;;;;;;;8.57;1.23;;;;;;;;;;5053367;28;20481;-39
2022/04/04 12:27:13;;;;;;;6.00;1.30;;;;;;;;;;5056162;28;20378;-39
2022/04/04 12:29:40;;;;;;;7.40;1.35;;;;;;;;;;5055277;28;20048;-39
2022/04/04 12:32:13;;;;;;;5.38;1.33;;;;;;;;;;5055647;28;20048;-39
2022/04/04 12:34:39;;;;;;;7.85;1.40;;;;;;;;;;5054431;28;20053;-39
2022/04/04 12:37:08;;;;;;;6.22;1.20;;;;;;;;;;5055835;28;20057;-40
2022/04/04 12:39:34;;;;;;;5.43;1.20;;;;;;;;;;5055525;28;20102;-40
2022/04/04 12:42:06;;;;;;;6.32;1.25;;;;;;;;;;5056556;28;20049;-39
2022/04/04 12:44:34;;;;;;;8.52;1.38;;;;;;;;;;5055943;28;20053;-39
2022/04/04 12:47:08;;;;;;;5.00;0.93;;;;;;;;;;5055754;28;20413;-38
2022/04/04 12:49:35;;;;;;;5.03;1.42;;;;;;;;;;5055776;28;20059;-39
2022/04/04 12:52:06;;;;;;;8.88;1.20;;;;;;;;;;5055584;28;20044;-39
2022/04/04 12:54:34;;;;;;;4.88;1.30;;;;;;;;;;5056020;28;20444;-39
2022/04/04 12:57:00;;;;;;;6.85;1.10;;;;;;;;;;5054938;28;20136;-39
2022/04/04 12:59:27;;;;;;;7.55;1.30;;;;;;;;;;5055485;28;20057;-39
2022/04/04 13:02:09;;;;;;;6.18;1.25;;;;;;;;;;5054694;28;20049;-39
2022/04/04 13:04:35;;;;;;;10.55;1.30;;;;;;;;;;5055537;28;20053;-41
2022/04/04 13:07:02;;;;;;;5.63;1.48;;;;;;;;;;5053462;28;20053;-38
2022/04/04 13:09:29;;;;;;;7.30;1.48;;;;;;;;;;5055530;28;20045;-39
2022/04/04 13:11:56;;;;;;;9.10;1.40;;;;;;;;;;5054976;28;20053;-39
2022/04/04 13:14:23;;;;;;;6.30;1.38;;;;;;;;;;5055759;28;20063;-38
2022/04/04 13:16:50;;;;;;;5.35;1.30;;;;;;;;;;5054845;28;20186;-38
2022/04/04 13:19:18;;;;;;;7.80;1.40;;;;;;;;;;5055292;28;20111;-40
2022/04/04 13:21:45;;;;;;;6.53;1.30;;;;;;;;;;5055117;28;20087;-38
2022/04/04 13:24:12;;;;;;;9.70;1.20;;;;;;;;;;5055372;28;20053;-38
2022/04/04 13:26:39;;;;;;;6.80;1.30;;;;;;;;;;5054422;28;20044;-38
2022/04/04 13:29:07;;;;;;;6.22;1.50;;;;;;;;;;5012717;28;20522;-38
2022/04/04 13:31:33;;;;;;;6.80;1.15;;;;;;;;;;5034350;28;20141;-38
2022/04/04 13:34:00;;;;;;;5.30;1.40;;;;;;;;;;5035552;28;20061;-38
2022/04/04 13:36:28;;;;;;;8.88;1.40;;;;;;;;;;5034545;28;20060;-48
2022/04/04 13:38:56;;;;;;;5.25;1.25;;;;;;;;;;5035096;28;20131;-38
2022/04/04 13:41:23;;;;;;;4.47;1.10;;;;;;;;;;5035082;28;20111;-40
2022/04/04 13:43:49;;;;;;;3.80;1.40;;;;;;;;;;5035688;28;20080;-40
2022/04/04 13:46:17;;;;;;;7.03;1.20;;;;;;;;;;5033729;28;20045;-38
2022/04/04 13:48:43;;;;;;;5.28;1.20;;;;;;;;;;5035286;28;20053;-39
2022/04/04 13:51:09;;;;;;;4.95;1.23;;;;;;;;;;5033494;28;20454;-40
2022/04/04 13:53:37;;;;;;;4.65;1.23;;;;;;;;;;5034468;28;20107;-38
2022/04/04 13:56:03;;;;;;;4.65;1.38;;;;;;;;;;5034115;28;20556;-38
2022/04/04 13:58:29;;;;;;;8.15;1.30;;;;;;;;;;5034819;28;20474;-38
2022/04/04 14:00:56;;;;;;;3.22;0.88;;;;;;;;;;5033121;28;20057;-38
2022/04/04 14:03:23;;;;;;;6.15;1.30;;;;;;;;;;5032930;28;20119;-38
2022/04/04 14:05:55;;;;;;;6.10;1.10;;;;;;;;;;5034041;28;20454;-38
2022/04/04 14:08:22;;;;;;;6.93;1.08;;;;;;;;;;5034724;28;20077;-38
2022/04/04 14:10:50;;;;;;;5.18;1.10;;;;;;;;;;5034573;28;20049;-38
2022/04/04 14:13:16;;;;;;;5.78;1.20;;;;;;;;;;5034456;28;20061;-39
2022/04/04 14:15:42;;;;;;;3.53;1.05;;;;;;;;;;5033581;28;20061;-38
2022/04/04 14:18:08;;;;;;;8.10;1.23;;;;;;;;;;5031799;28;20356;-38
2022/04/04 14:20:36;;;;;;;2.53;1.00;;;;;;;;;;5034423;28;20057;-39
2022/04/04 14:23:03;;;;;;;3.45;0.98;;;;;;;;;;5034320;28;20068;-38
2022/04/04 14:25:29;;;;;;;4.47;1.10;;;;;;;;;;5033900;28;20419;-38
2022/04/04 14:27:56;;;;;;;11.30;1.60;;;;;;;;;;5033861;28;20046;-36
2022/04/04 14:30:25;;;;;;;4.45;1.20;;;;;;;;;;5033338;28;20056;-40
2022/04/04 14:32:51;;;;;;;4.70;1.13;;;;;;;;;;5034504;28;20135;-38
2022/04/04 14:35:18;;;;;;;5.68;1.50;;;;;;;;;;5034110;28;20393;-38
2022/04/04 14:37:45;;;;;;;6.18;1.42;;;;;;;;;;5034403;28;20071;-42
2022/04/04 14:40:12;;;;;;;18.67;1.42;;;;;;;;;;5033928;28;20133;-38
2022/04/04 14:42:40;;;;;;;10.98;1.50;;;;;;;;;;5034033;28;20061;-43
2022/04/04 14:45:09;;;;;;;8.05;1.38;;;;;;;;;;5033535;28;20050;-38
2022/04/04 14:47:35;;;;;;;7.47;1.27;;;;;;;;;;5033851;28;20053;-38
2022/04/04 14:50:07;;;;;;;8.40;1.33;;;;;;;;;;5032661;28;20045;-39